createdAt,value
2019-03-02T00:00:09.093Z,1001.22
2019-03-02T00:01:09.667Z,1001.21
2019-03-02T00:02:09.136Z,1001.23
2019-03-02T00:03:09.151Z,1001.18
2019-03-02T00:04:10.035Z,1001.17
2019-03-02T00:05:09.193Z,1001.2
2019-03-02T00:06:09.214Z,1001.2
2019-03-02T00:07:11.222Z,1001.23
2019-03-02T00:08:09.252Z,1001.19
2019-03-02T00:09:09.273Z,1001.22
2019-03-02T00:10:09.899Z,1001.22
2019-03-02T00:11:09.312Z,1001.2
2019-03-02T00:12:09.331Z,1001.21
2019-03-02T00:13:09.354Z,1001.23
2019-03-02T00:14:09.371Z,1001.22
2019-03-02T00:15:09.391Z,1001.19
2019-03-02T00:16:09.412Z,1001.19
2019-03-02T00:17:09.434Z,1001.19
2019-03-02T00:18:09.450Z,1001.17
2019-03-02T00:19:09.470Z,1001.14
2019-03-02T00:20:09.491Z,1001.16
2019-03-02T00:21:09.511Z,1001.13
2019-03-02T00:22:09.529Z,1001.17
2019-03-02T00:23:09.553Z,1001.13
2019-03-02T00:24:09.571Z,1001.1
2019-03-02T00:25:09.590Z,1001.07
2019-03-02T00:26:10.159Z,1001.08
2019-03-02T00:27:09.650Z,1001.08
2019-03-02T00:28:09.649Z,1001.09
2019-03-02T00:29:11.033Z,1001.08
2019-03-02T00:30:09.691Z,1001.09
2019-03-02T00:31:09.708Z,1001.12
2019-03-02T00:32:10.669Z,1001.09
2019-03-02T00:33:11.443Z,1001.11
2019-03-02T00:34:09.770Z,1001.1
2019-03-02T00:35:09.788Z,1001.11
2019-03-02T00:36:09.809Z,1001.08
2019-03-02T00:37:09.826Z,1001.05
2019-03-02T00:38:10.069Z,1001.02
2019-03-02T00:39:09.867Z,1001.02
2019-03-02T00:40:09.887Z,1000.98
2019-03-02T00:41:09.906Z,1001.02
2019-03-02T00:42:09.926Z,1001.03
2019-03-02T00:43:09.948Z,1001.01
2019-03-02T00:44:09.966Z,1001.02
2019-03-02T00:45:10.562Z,1000.99
2019-03-02T00:46:10.005Z,1000.98
2019-03-02T00:47:10.024Z,1001
2019-03-02T00:48:10.998Z,1000.96
2019-03-02T00:49:10.064Z,1000.96
2019-03-02T00:50:10.084Z,1000.93
2019-03-02T00:51:11.164Z,1000.9
2019-03-02T00:52:10.123Z,1000.93
2019-03-02T00:53:10.142Z,1000.96
2019-03-02T00:54:11.310Z,1000.93
2019-03-02T00:55:10.182Z,1000.91
2019-03-02T00:56:10.204Z,1000.93
2019-03-02T00:57:10.220Z,1000.93
2019-03-02T00:58:10.259Z,1000.9
2019-03-02T00:59:10.260Z,1000.94
2019-03-02T01:00:11.588Z,1000.92
2019-03-02T01:01:10.298Z,1000.93
2019-03-02T01:02:10.317Z,1000.96
2019-03-02T01:03:11.913Z,1001
2019-03-02T01:04:10.358Z,1000.98
2019-03-02T01:05:10.377Z,1000.92
2019-03-02T01:06:12.597Z,1000.95
2019-03-02T01:07:10.415Z,1000.95
2019-03-02T01:08:10.439Z,1000.96
2019-03-02T01:09:11.647Z,1000.92
2019-03-02T01:10:10.475Z,1000.99
2019-03-02T01:11:10.493Z,1000.96
2019-03-02T01:12:10.513Z,1000.94
2019-03-02T01:13:10.531Z,1000.92
2019-03-02T01:14:10.553Z,1000.95
2019-03-02T01:15:10.571Z,1000.97
2019-03-02T01:16:10.591Z,1000.94
2019-03-02T01:17:10.611Z,1000.87
2019-03-02T01:18:10.630Z,1000.91
2019-03-02T01:19:10.649Z,1000.92
2019-03-02T01:20:10.669Z,1000.89
2019-03-02T01:21:10.689Z,1000.91
2019-03-02T01:22:13.497Z,1000.88
2019-03-02T01:23:10.729Z,1000.94
2019-03-02T01:24:10.746Z,1000.94
2019-03-02T01:25:13.311Z,1000.92
2019-03-02T01:26:10.786Z,1000.9
2019-03-02T01:27:10.806Z,1000.92
2019-03-02T01:28:10.825Z,1000.9
2019-03-02T01:29:10.846Z,1000.87
2019-03-02T01:30:10.865Z,1000.89
2019-03-02T01:31:10.884Z,1000.86
2019-03-02T01:32:12.619Z,1000.88
2019-03-02T01:33:10.923Z,1000.89
2019-03-02T01:34:10.944Z,1000.87
2019-03-02T01:35:10.961Z,1000.87
2019-03-02T01:36:10.983Z,1000.88
2019-03-02T01:37:11.002Z,1000.89
2019-03-02T01:38:11.019Z,1000.86
2019-03-02T01:39:11.038Z,1000.81
2019-03-02T01:40:11.057Z,1000.79
2019-03-02T01:41:13.942Z,1000.78
2019-03-02T01:42:11.097Z,1000.79
2019-03-02T01:43:11.115Z,1000.77
2019-03-02T01:44:12.608Z,1000.74
2019-03-02T01:45:11.155Z,1000.72
2019-03-02T01:46:11.175Z,1000.7
2019-03-02T01:47:12.454Z,1000.7
2019-03-02T01:48:11.217Z,1000.69
2019-03-02T01:49:11.231Z,1000.65
2019-03-02T01:50:11.889Z,1000.64
2019-03-02T01:51:11.269Z,1000.61
2019-03-02T01:52:11.289Z,1000.6
2019-03-02T01:53:11.309Z,1000.63
2019-03-02T01:54:11.328Z,1000.58
2019-03-02T01:55:11.348Z,1000.58
2019-03-02T01:56:11.387Z,1000.56
2019-03-02T01:57:13.689Z,1000.55
2019-03-02T01:58:11.409Z,1000.58
2019-03-02T01:59:11.424Z,1000.56
2019-03-02T02:00:13.746Z,1000.56
2019-03-02T02:01:11.463Z,1000.54
2019-03-02T02:02:11.481Z,1000.52
2019-03-02T02:03:12.010Z,1000.43
2019-03-02T02:04:11.520Z,1000.39
2019-03-02T02:05:11.540Z,1000.37
2019-03-02T02:06:11.559Z,1000.42
2019-03-02T02:07:14.361Z,1000.41
2019-03-02T02:08:11.596Z,1000.4
2019-03-02T02:09:11.617Z,1000.39
2019-03-02T02:10:11.636Z,1000.39
2019-03-02T02:11:14.492Z,1000.4
2019-03-02T02:12:11.673Z,1000.38
2019-03-02T02:13:11.693Z,1000.4
2019-03-02T02:14:14.801Z,1000.34
2019-03-02T02:15:11.730Z,1000.38
2019-03-02T02:16:11.750Z,1000.38
2019-03-02T02:17:14.394Z,1000.36
2019-03-02T02:18:11.790Z,1000.36
2019-03-02T02:19:11.806Z,1000.42
2019-03-02T02:20:14.503Z,1000.37
2019-03-02T02:21:11.846Z,1000.34
2019-03-02T02:22:11.864Z,1000.28
2019-03-02T02:23:13.206Z,1000.26
2019-03-02T02:24:11.902Z,1000.3
2019-03-02T02:25:11.921Z,1000.3
2019-03-02T02:26:12.530Z,1000.32
2019-03-02T02:27:11.960Z,1000.33
2019-03-02T02:28:11.989Z,1000.25
2019-03-02T02:29:11.999Z,1000.28
2019-03-02T02:30:12.018Z,1000.24
2019-03-02T02:31:12.037Z,1000.19
2019-03-02T02:32:12.055Z,1000.18
2019-03-02T02:33:12.073Z,1000.14
2019-03-02T02:34:12.093Z,1000.15
2019-03-02T02:35:12.114Z,1000.17
2019-03-02T02:36:14.000Z,1000.17
2019-03-02T02:37:12.150Z,1000.14
2019-03-02T02:38:15.892Z,1000.15
2019-03-02T02:39:12.190Z,1000.05
2019-03-02T02:40:12.790Z,1000.12
2019-03-02T02:41:12.229Z,1000.11
2019-03-02T02:42:12.246Z,1000.13
2019-03-02T02:43:20.119Z,1000.13
2019-03-02T02:44:12.285Z,1000.11
2019-03-02T02:45:15.135Z,1000.07
2019-03-02T02:46:12.331Z,1000.07
2019-03-02T02:47:13.944Z,1000.07
2019-03-02T02:48:12.361Z,1000.03
2019-03-02T02:49:12.382Z,1000.05
2019-03-02T02:50:12.409Z,1000.03
2019-03-02T02:51:12.599Z,1000.05
2019-03-02T02:52:12.436Z,1000.05
2019-03-02T02:53:12.455Z,1000.02
2019-03-02T02:54:12.475Z,1000.04
2019-03-02T02:55:12.493Z,1000.01
2019-03-02T02:56:14.188Z,1000
2019-03-02T02:57:12.530Z,999.97
2019-03-02T02:58:17.430Z,999.94
2019-03-02T02:59:12.569Z,999.96
2019-03-02T03:00:16.409Z,999.97
2019-03-02T03:01:12.609Z,999.94
2019-03-02T03:02:12.627Z,999.94
2019-03-02T03:03:15.840Z,999.92
2019-03-02T03:04:12.665Z,999.94
2019-03-02T03:05:15.087Z,999.94
2019-03-02T03:06:12.704Z,999.9
2019-03-02T03:07:14.262Z,999.87
2019-03-02T03:08:12.740Z,999.86
2019-03-02T03:09:12.759Z,999.87
2019-03-02T03:10:12.777Z,999.86
2019-03-02T03:11:12.800Z,999.84
2019-03-02T03:12:12.815Z,999.86
2019-03-02T03:13:12.834Z,999.86
2019-03-02T03:14:14.901Z,999.86
2019-03-02T03:15:12.874Z,999.83
2019-03-02T03:16:16.434Z,999.86
2019-03-02T03:17:12.912Z,999.79
2019-03-02T03:18:14.870Z,999.84
2019-03-02T03:19:12.948Z,999.8
2019-03-02T03:20:12.970Z,999.79
2019-03-02T03:21:12.986Z,999.81
2019-03-02T03:22:13.006Z,999.82
2019-03-02T03:23:13.024Z,999.79
2019-03-02T03:24:13.040Z,999.82
2019-03-02T03:25:13.828Z,999.78
2019-03-02T03:26:13.085Z,999.83
2019-03-02T03:27:14.444Z,999.8
2019-03-02T03:28:13.139Z,999.78
2019-03-02T03:29:13.137Z,999.74
2019-03-02T03:30:13.155Z,999.77
2019-03-02T03:31:20.807Z,999.79
2019-03-02T03:32:13.196Z,999.79
2019-03-02T03:33:13.211Z,999.82
2019-03-02T03:34:13.241Z,999.81
2019-03-02T03:35:16.787Z,999.83
2019-03-02T03:36:13.268Z,999.81
2019-03-02T03:37:14.867Z,999.81
2019-03-02T03:38:13.308Z,999.8
2019-03-02T03:39:13.325Z,999.79
2019-03-02T03:40:13.344Z,999.81
2019-03-02T03:41:13.361Z,999.78
2019-03-02T03:42:22.169Z,999.78
2019-03-02T03:43:13.400Z,999.77
2019-03-02T03:44:17.084Z,999.79
2019-03-02T03:45:13.438Z,999.77
2019-03-02T03:46:17.683Z,999.78
2019-03-02T03:47:13.475Z,999.77
2019-03-02T03:48:17.747Z,999.75
2019-03-02T03:49:13.513Z,999.73
2019-03-02T03:50:15.379Z,999.73
2019-03-02T03:51:13.556Z,999.77
2019-03-02T03:52:13.573Z,999.79
2019-03-02T03:53:13.589Z,999.79
2019-03-02T03:54:13.660Z,999.76
2019-03-02T03:55:13.626Z,999.76
2019-03-02T03:56:13.644Z,999.75
2019-03-02T03:57:16.992Z,999.74
2019-03-02T03:58:13.687Z,999.71
2019-03-02T03:59:14.140Z,999.71
2019-03-02T04:00:13.720Z,999.76
2019-03-02T04:01:17.643Z,999.77
2019-03-02T04:02:13.758Z,999.79
2019-03-02T04:03:14.983Z,999.73
2019-03-02T04:04:13.795Z,999.77
2019-03-02T04:05:13.812Z,999.76
2019-03-02T04:06:13.832Z,999.76
2019-03-02T04:07:13.851Z,999.76
2019-03-02T04:08:13.869Z,999.76
2019-03-02T04:09:13.889Z,999.74
2019-03-02T04:10:13.910Z,999.75
2019-03-02T04:11:13.925Z,999.79
2019-03-02T04:12:13.945Z,999.8
2019-03-02T04:13:13.964Z,999.72
2019-03-02T04:14:14.032Z,999.73
2019-03-02T04:15:14.002Z,999.77
2019-03-02T04:16:16.088Z,999.75
2019-03-02T04:17:14.039Z,999.78
2019-03-02T04:18:16.300Z,999.78
2019-03-02T04:19:14.125Z,999.7
2019-03-02T04:20:14.096Z,999.72
2019-03-02T04:21:14.111Z,999.74
2019-03-02T04:22:14.132Z,999.76
2019-03-02T04:23:17.984Z,999.72
2019-03-02T04:24:14.172Z,999.76
2019-03-02T04:25:17.806Z,999.76
2019-03-02T04:26:14.209Z,999.74
2019-03-02T04:27:15.304Z,999.73
2019-03-02T04:28:14.241Z,999.8
2019-03-02T04:29:14.268Z,999.81
2019-03-02T04:30:14.279Z,999.74
2019-03-02T04:31:14.298Z,999.76
2019-03-02T04:32:14.316Z,999.77
2019-03-02T04:33:14.339Z,999.78
2019-03-02T04:34:20.132Z,999.76
2019-03-02T04:35:14.372Z,999.81
2019-03-02T04:36:14.392Z,999.81
2019-03-02T04:37:14.410Z,999.74
2019-03-02T04:38:14.429Z,999.74
2019-03-02T04:39:15.002Z,999.7
2019-03-02T04:40:14.469Z,999.69
2019-03-02T04:41:14.487Z,999.69
2019-03-02T04:42:14.648Z,999.77
2019-03-02T04:43:14.521Z,999.69
2019-03-02T04:44:14.539Z,999.7
2019-03-02T04:45:14.558Z,999.7
2019-03-02T04:46:15.374Z,999.71
2019-03-02T04:47:14.596Z,999.68
2019-03-02T04:48:14.616Z,999.66
2019-03-02T04:49:15.542Z,999.67
2019-03-02T04:50:14.650Z,999.6
2019-03-02T04:51:14.672Z,999.61
2019-03-02T04:52:15.410Z,999.57
2019-03-02T04:53:16.537Z,999.6
2019-03-02T04:54:14.724Z,999.61
2019-03-02T04:55:14.861Z,999.59
2019-03-02T04:56:14.765Z,999.57
2019-03-02T04:57:14.782Z,999.57
2019-03-02T04:58:14.800Z,999.57
2019-03-02T04:59:14.818Z,999.6
2019-03-02T05:00:14.836Z,999.59
2019-03-02T05:01:14.856Z,999.57
2019-03-02T05:02:16.691Z,999.6
2019-03-02T05:03:14.892Z,999.55
2019-03-02T05:04:14.910Z,999.52
2019-03-02T05:05:14.931Z,999.58
2019-03-02T05:06:15.581Z,999.54
2019-03-02T05:07:14.966Z,999.58
2019-03-02T05:08:14.985Z,999.56
2019-03-02T05:09:17.091Z,999.55
2019-03-02T05:10:15.020Z,999.56
2019-03-02T05:11:15.040Z,999.56
2019-03-02T05:12:15.523Z,999.59
2019-03-02T05:13:15.077Z,999.58
2019-03-02T05:14:15.095Z,999.59
2019-03-02T05:15:15.916Z,999.63
2019-03-02T05:16:15.132Z,999.64
2019-03-02T05:17:15.150Z,999.59
2019-03-02T05:18:18.084Z,999.61
2019-03-02T05:19:15.194Z,999.61
2019-03-02T05:20:15.206Z,999.56
2019-03-02T05:21:15.225Z,999.55
2019-03-02T05:22:15.466Z,999.54
2019-03-02T05:23:15.261Z,999.54
2019-03-02T05:24:15.280Z,999.52
2019-03-02T05:25:15.593Z,999.53
2019-03-02T05:26:15.317Z,999.48
2019-03-02T05:27:15.335Z,999.44
2019-03-02T05:28:15.354Z,999.47
2019-03-02T05:29:17.667Z,999.49
2019-03-02T05:30:15.390Z,999.5
2019-03-02T05:31:15.412Z,999.46
2019-03-02T05:32:15.976Z,999.45
2019-03-02T05:33:15.445Z,999.44
2019-03-02T05:34:15.464Z,999.41
2019-03-02T05:35:16.755Z,999.39
2019-03-02T05:36:15.500Z,999.36
2019-03-02T05:37:15.521Z,999.35
2019-03-02T05:38:16.106Z,999.36
2019-03-02T05:39:17.243Z,999.32
2019-03-02T05:40:15.726Z,999.32
2019-03-02T05:41:15.593Z,999.32
2019-03-02T05:42:15.612Z,999.31
2019-03-02T05:43:15.629Z,999.33
2019-03-02T05:44:15.648Z,999.3
2019-03-02T05:45:15.667Z,999.36
2019-03-02T05:46:15.686Z,999.31
2019-03-02T05:47:15.703Z,999.31
2019-03-02T05:48:15.722Z,999.26
2019-03-02T05:49:18.486Z,999.3
2019-03-02T05:50:15.760Z,999.31
2019-03-02T05:51:15.778Z,999.24
2019-03-02T05:52:17.752Z,999.28
2019-03-02T05:53:15.816Z,999.27
2019-03-02T05:54:15.833Z,999.28
2019-03-02T05:55:17.949Z,999.31
2019-03-02T05:56:15.871Z,999.29
2019-03-02T05:57:15.891Z,999.26
2019-03-02T05:58:16.974Z,999.31
2019-03-02T05:59:15.927Z,999.3
2019-03-02T06:00:15.949Z,999.38
2019-03-02T06:01:15.971Z,999.38
2019-03-02T06:02:17.206Z,999.41
2019-03-02T06:03:16.002Z,999.39
2019-03-02T06:04:18.737Z,999.41
2019-03-02T06:05:16.038Z,999.45
2019-03-02T06:06:16.057Z,999.49
2019-03-02T06:07:16.075Z,999.42
2019-03-02T06:08:16.096Z,999.44
2019-03-02T06:09:16.111Z,999.43
2019-03-02T06:10:16.132Z,999.45
2019-03-02T06:11:16.151Z,999.42
2019-03-02T06:12:16.331Z,999.42
2019-03-02T06:13:16.186Z,999.41
2019-03-02T06:14:16.207Z,999.37
2019-03-02T06:15:16.224Z,999.4
2019-03-02T06:16:18.646Z,999.36
2019-03-02T06:17:16.260Z,999.32
2019-03-02T06:18:16.281Z,999.33
2019-03-02T06:19:17.382Z,999.32
2019-03-02T06:20:16.317Z,999.34
2019-03-02T06:21:16.336Z,999.32
2019-03-02T06:22:17.565Z,999.27
2019-03-02T06:23:16.372Z,999.31
2019-03-02T06:24:16.391Z,999.26
2019-03-02T06:25:20.346Z,999.24
2019-03-02T06:26:16.428Z,999.29
2019-03-02T06:27:16.445Z,999.28
2019-03-02T06:28:19.555Z,999.3
2019-03-02T06:29:16.483Z,999.29
2019-03-02T06:30:16.503Z,999.29
2019-03-02T06:31:19.080Z,999.27
2019-03-02T06:32:16.539Z,999.32
2019-03-02T06:33:16.557Z,999.31
2019-03-02T06:34:19.442Z,999.34
2019-03-02T06:35:16.594Z,999.32
2019-03-02T06:36:16.612Z,999.32
2019-03-02T06:37:16.961Z,999.34
2019-03-02T06:38:18.194Z,999.32
2019-03-02T06:39:16.668Z,999.31
2019-03-02T06:40:19.698Z,999.33
2019-03-02T06:41:16.704Z,999.34
2019-03-02T06:42:16.725Z,999.31
2019-03-02T06:43:17.760Z,999.25
2019-03-02T06:44:16.759Z,999.26
2019-03-02T06:45:16.778Z,999.26
2019-03-02T06:46:19.803Z,999.24
2019-03-02T06:47:16.819Z,999.23
2019-03-02T06:48:16.834Z,999.21
2019-03-02T06:49:19.870Z,999.17
2019-03-02T06:50:16.871Z,999.17
2019-03-02T06:51:16.887Z,999.19
2019-03-02T06:52:18.863Z,999.16
2019-03-02T06:53:16.925Z,999.15
2019-03-02T06:54:16.944Z,999.2
2019-03-02T06:55:16.965Z,999.21
2019-03-02T06:56:16.981Z,999.19
2019-03-02T06:57:16.997Z,999.18
2019-03-02T06:58:17.018Z,999.21
2019-03-02T06:59:17.036Z,999.17
2019-03-02T07:00:17.054Z,999.19
2019-03-02T07:01:17.071Z,999.17
2019-03-02T07:02:17.091Z,999.14
2019-03-02T07:03:17.108Z,999.17
2019-03-02T07:04:17.911Z,999.14
2019-03-02T07:05:17.145Z,999.16
2019-03-02T07:06:17.166Z,999.14
2019-03-02T07:07:18.515Z,999.15
2019-03-02T07:08:17.201Z,999.16
2019-03-02T07:09:17.220Z,999.16
2019-03-02T07:10:17.651Z,999.15
2019-03-02T07:11:17.255Z,999.14
2019-03-02T07:12:17.273Z,999.15
2019-03-02T07:13:17.783Z,999.16
2019-03-02T07:14:17.311Z,999.19
2019-03-02T07:15:17.330Z,999.21
2019-03-02T07:16:20.029Z,999.18
2019-03-02T07:17:17.366Z,999.17
2019-03-02T07:18:17.383Z,999.19
2019-03-02T07:19:17.674Z,999.18
2019-03-02T07:20:17.421Z,999.21
2019-03-02T07:21:17.440Z,999.15
2019-03-02T07:22:17.961Z,999.15
2019-03-02T07:23:17.475Z,999.2
2019-03-02T07:24:17.499Z,999.19
2019-03-02T07:25:17.514Z,999.18
2019-03-02T07:26:19.660Z,999.18
2019-03-02T07:27:17.549Z,999.17
2019-03-02T07:28:17.568Z,999.17
2019-03-02T07:29:17.799Z,999.16
2019-03-02T07:30:17.603Z,999.2
2019-03-02T07:31:17.622Z,999.19
2019-03-02T07:32:17.641Z,999.17
2019-03-02T07:33:17.658Z,999.12
2019-03-02T07:34:17.677Z,999.15
2019-03-02T07:35:19.295Z,999.1
2019-03-02T07:36:17.715Z,999.13
2019-03-02T07:37:17.732Z,999.1
2019-03-02T07:38:20.247Z,999.12
2019-03-02T07:39:17.770Z,999.1
2019-03-02T07:40:17.787Z,999.09
2019-03-02T07:41:18.693Z,999.1
2019-03-02T07:42:17.825Z,999.11
2019-03-02T07:43:17.843Z,999.09
2019-03-02T07:44:18.788Z,999.1
2019-03-02T07:45:17.879Z,999.14
2019-03-02T07:46:17.898Z,999.13
2019-03-02T07:47:20.585Z,999.12
2019-03-02T07:48:17.935Z,999.16
2019-03-02T07:49:17.953Z,999.16
2019-03-02T07:50:17.977Z,999.19
2019-03-02T07:51:17.990Z,999.17
2019-03-02T07:52:18.537Z,999.15
2019-03-02T07:53:18.027Z,999.14
2019-03-02T07:54:18.046Z,999.1
2019-03-02T07:55:18.702Z,999.15
2019-03-02T07:56:18.082Z,999.15
2019-03-02T07:57:18.100Z,999.12
2019-03-02T07:58:19.642Z,999.11
2019-03-02T07:59:18.136Z,999.12
2019-03-02T08:00:18.155Z,999.14
2019-03-02T08:01:18.173Z,999.13
2019-03-02T08:02:18.191Z,999.12
2019-03-02T08:03:18.211Z,999.11
2019-03-02T08:04:18.229Z,999.12
2019-03-02T08:05:18.248Z,999.09
2019-03-02T08:06:18.263Z,999.13
2019-03-02T08:07:18.283Z,999.14
2019-03-02T08:08:18.300Z,999.11
2019-03-02T08:09:18.320Z,999.13
2019-03-02T08:10:18.341Z,999.14
2019-03-02T08:11:19.767Z,999.15
2019-03-02T08:12:20.771Z,999.09
2019-03-02T08:13:18.394Z,999.1
2019-03-02T08:14:18.410Z,999.07
2019-03-02T08:15:20.079Z,999.09
2019-03-02T08:16:18.449Z,999.08
2019-03-02T08:17:18.467Z,999.1
2019-03-02T08:18:21.598Z,999.1
2019-03-02T08:19:18.503Z,999.07
2019-03-02T08:20:20.633Z,999.12
2019-03-02T08:21:18.539Z,999.1
2019-03-02T08:22:18.558Z,999.06
2019-03-02T08:23:18.581Z,999.04
2019-03-02T08:24:18.594Z,999.08
2019-03-02T08:25:18.614Z,999.07
2019-03-02T08:26:18.631Z,999.1
2019-03-02T08:27:18.650Z,999.07
2019-03-02T08:28:18.669Z,999.04
2019-03-02T08:29:20.926Z,999.13
2019-03-02T08:30:18.704Z,999.1
2019-03-02T08:31:18.722Z,999.08
2019-03-02T08:32:21.108Z,999.04
2019-03-02T08:33:18.758Z,999.05
2019-03-02T08:34:18.778Z,999.02
2019-03-02T08:35:18.797Z,999
2019-03-02T08:36:18.815Z,999.02
2019-03-02T08:37:18.833Z,999.03
2019-03-02T08:38:18.851Z,999.04
2019-03-02T08:39:18.870Z,999.01
2019-03-02T08:40:19.171Z,999.03
2019-03-02T08:41:18.906Z,999.03
2019-03-02T08:42:18.924Z,999.02
2019-03-02T08:43:18.942Z,999.01
2019-03-02T08:44:19.839Z,999.02
2019-03-02T08:45:18.981Z,998.97
2019-03-02T08:46:18.997Z,998.92
2019-03-02T08:47:19.016Z,998.92
2019-03-02T08:48:19.035Z,998.97
2019-03-02T08:49:19.052Z,998.9
2019-03-02T08:50:19.092Z,998.93
2019-03-02T08:51:19.090Z,998.92
2019-03-02T08:52:19.107Z,999
2019-03-02T08:53:19.125Z,999.04
2019-03-02T08:54:21.463Z,999.03
2019-03-02T08:55:19.163Z,998.96
2019-03-02T08:56:19.182Z,999
2019-03-02T08:57:19.560Z,998.96
2019-03-02T08:58:19.220Z,998.94
2019-03-02T08:59:19.237Z,999
2019-03-02T09:00:19.257Z,999.04
2019-03-02T09:01:19.720Z,999
2019-03-02T09:02:19.291Z,999.05
2019-03-02T09:03:19.312Z,999.1
2019-03-02T09:04:19.329Z,999.06
2019-03-02T09:05:19.346Z,999.08
2019-03-02T09:06:19.365Z,999.07
2019-03-02T09:07:19.384Z,999.02
2019-03-02T09:08:19.411Z,999
2019-03-02T09:09:19.898Z,999.04
2019-03-02T09:10:21.415Z,998.99
2019-03-02T09:11:19.459Z,998.96
2019-03-02T09:12:21.761Z,998.97
2019-03-02T09:13:19.494Z,998.96
2019-03-02T09:14:19.514Z,998.93
2019-03-02T09:15:22.081Z,998.85
2019-03-02T09:16:19.549Z,998.84
2019-03-02T09:17:19.568Z,998.87
2019-03-02T09:18:19.588Z,998.84
2019-03-02T09:19:20.513Z,998.83
2019-03-02T09:20:19.626Z,998.77
2019-03-02T09:21:19.643Z,998.81
2019-03-02T09:22:20.765Z,998.82
2019-03-02T09:23:19.680Z,998.81
2019-03-02T09:24:19.820Z,998.8
2019-03-02T09:25:20.183Z,998.83
2019-03-02T09:26:19.737Z,998.83
2019-03-02T09:27:19.758Z,998.86
2019-03-02T09:28:19.775Z,998.82
2019-03-02T09:29:19.793Z,998.82
2019-03-02T09:30:19.812Z,998.87
2019-03-02T09:31:26.003Z,998.81
2019-03-02T09:32:19.848Z,998.84
2019-03-02T09:33:19.875Z,998.85
2019-03-02T09:34:19.886Z,998.86
2019-03-02T09:35:19.906Z,998.83
2019-03-02T09:36:19.925Z,998.9
2019-03-02T09:37:19.942Z,998.86
2019-03-02T09:38:20.792Z,998.89
2019-03-02T09:39:19.980Z,998.88
2019-03-02T09:40:19.999Z,998.85
2019-03-02T09:41:21.927Z,998.89
2019-03-02T09:42:20.036Z,998.9
2019-03-02T09:43:20.058Z,998.87
2019-03-02T09:44:20.074Z,998.86
2019-03-02T09:45:20.093Z,998.87
2019-03-02T09:46:21.152Z,998.86
2019-03-02T09:47:20.131Z,998.92
2019-03-02T09:48:20.851Z,998.86
2019-03-02T09:49:20.177Z,998.88
2019-03-02T09:50:21.637Z,998.84
2019-03-02T09:51:20.206Z,998.85
2019-03-02T09:52:20.223Z,998.85
2019-03-02T09:53:20.244Z,998.84
2019-03-02T09:54:20.266Z,998.84
2019-03-02T09:55:20.755Z,998.78
2019-03-02T09:56:20.300Z,998.8
2019-03-02T09:57:20.319Z,998.77
2019-03-02T09:58:24.072Z,998.79
2019-03-02T09:59:20.357Z,998.79
2019-03-02T10:00:23.552Z,998.83
2019-03-02T10:01:20.395Z,998.81
2019-03-02T10:02:20.416Z,998.81
2019-03-02T10:03:23.000Z,998.79
2019-03-02T10:04:20.452Z,998.78
2019-03-02T10:05:20.472Z,998.82
2019-03-02T10:06:21.744Z,998.81
2019-03-02T10:07:20.510Z,998.83
2019-03-02T10:08:20.530Z,998.78
2019-03-02T10:09:21.878Z,998.79
2019-03-02T10:10:20.609Z,998.78
2019-03-02T10:11:20.586Z,998.81
2019-03-02T10:12:20.604Z,998.8
2019-03-02T10:13:20.673Z,998.82
2019-03-02T10:14:24.288Z,998.77
2019-03-02T10:15:20.667Z,998.8
2019-03-02T10:16:20.681Z,998.77
2019-03-02T10:17:20.698Z,998.82
2019-03-02T10:18:20.727Z,998.79
2019-03-02T10:19:20.737Z,998.81
2019-03-02T10:20:20.760Z,998.78
2019-03-02T10:21:20.775Z,998.84
2019-03-02T10:22:23.325Z,998.79
2019-03-02T10:23:20.815Z,998.79
2019-03-02T10:24:20.835Z,998.82
2019-03-02T10:25:20.852Z,998.77
2019-03-02T10:26:20.872Z,998.78
2019-03-02T10:27:22.068Z,998.81
2019-03-02T10:28:20.915Z,998.79
2019-03-02T10:29:20.929Z,998.77
2019-03-02T10:30:21.926Z,998.79
2019-03-02T10:31:20.969Z,998.75
2019-03-02T10:32:20.989Z,998.79
2019-03-02T10:33:21.011Z,998.77
2019-03-02T10:34:21.025Z,998.75
2019-03-02T10:35:21.045Z,998.77
2019-03-02T10:36:21.082Z,998.74
2019-03-02T10:37:21.084Z,998.77
2019-03-02T10:38:21.100Z,998.76
2019-03-02T10:39:21.121Z,998.71
2019-03-02T10:40:22.936Z,998.72
2019-03-02T10:41:21.551Z,998.8
2019-03-02T10:42:21.183Z,998.8
2019-03-02T10:43:21.196Z,998.79
2019-03-02T10:44:21.426Z,998.82
2019-03-02T10:45:21.246Z,998.79
2019-03-02T10:46:21.257Z,998.81
2019-03-02T10:47:21.274Z,998.77
2019-03-02T10:48:21.294Z,998.78
2019-03-02T10:49:21.313Z,998.79
2019-03-02T10:50:23.201Z,998.81
2019-03-02T10:51:21.349Z,998.82
2019-03-02T10:52:21.370Z,998.85
2019-03-02T10:53:24.203Z,998.8
2019-03-02T10:54:21.408Z,998.82
2019-03-02T10:55:21.431Z,998.81
2019-03-02T10:56:24.684Z,998.79
2019-03-02T10:57:21.467Z,998.82
2019-03-02T10:58:21.487Z,998.82
2019-03-02T10:59:21.506Z,998.82
2019-03-02T11:00:25.167Z,998.82
2019-03-02T11:01:21.544Z,998.83
2019-03-02T11:02:21.564Z,998.81
2019-03-02T11:03:21.583Z,998.81
2019-03-02T11:04:21.602Z,998.82
2019-03-02T11:05:21.622Z,998.81
2019-03-02T11:06:21.641Z,998.84
2019-03-02T11:07:21.660Z,998.83
2019-03-02T11:08:25.096Z,998.83
2019-03-02T11:09:22.463Z,998.82
2019-03-02T11:10:21.717Z,998.8
2019-03-02T11:11:21.735Z,998.82
2019-03-02T11:12:21.755Z,998.77
2019-03-02T11:13:21.777Z,998.73
2019-03-02T11:14:21.793Z,998.77
2019-03-02T11:15:21.815Z,998.78
2019-03-02T11:16:21.831Z,998.78
2019-03-02T11:17:23.037Z,998.75
2019-03-02T11:18:21.870Z,998.77
2019-03-02T11:19:21.891Z,998.69
2019-03-02T11:20:24.275Z,998.71
2019-03-02T11:21:21.929Z,998.69
2019-03-02T11:22:21.950Z,998.7
2019-03-02T11:23:23.112Z,998.71
2019-03-02T11:24:21.987Z,998.68
2019-03-02T11:25:22.006Z,998.71
2019-03-02T11:26:22.026Z,998.73
2019-03-02T11:27:22.044Z,998.68
2019-03-02T11:28:22.064Z,998.72
2019-03-02T11:29:22.179Z,998.7
2019-03-02T11:30:22.702Z,998.69
2019-03-02T11:31:22.121Z,998.65
2019-03-02T11:32:22.141Z,998.65
2019-03-02T11:33:22.159Z,998.69
2019-03-02T11:34:22.178Z,998.68
2019-03-02T11:35:22.199Z,998.62
2019-03-02T11:36:22.220Z,998.65
2019-03-02T11:37:25.525Z,998.61
2019-03-02T11:38:22.255Z,998.58
2019-03-02T11:39:22.276Z,998.57
2019-03-02T11:40:22.296Z,998.56
2019-03-02T11:41:22.314Z,998.53
2019-03-02T11:42:22.333Z,998.54
2019-03-02T11:43:22.354Z,998.54
2019-03-02T11:44:22.372Z,998.55
2019-03-02T11:45:22.391Z,998.53
2019-03-02T11:46:22.409Z,998.49
2019-03-02T11:47:22.430Z,998.45
2019-03-02T11:48:22.450Z,998.45
2019-03-02T11:49:29.906Z,998.42
2019-03-02T11:50:22.494Z,998.4
2019-03-02T11:51:23.934Z,998.37
2019-03-02T11:52:22.526Z,998.35
2019-03-02T11:53:24.066Z,998.31
2019-03-02T11:54:24.973Z,998.28
2019-03-02T11:55:22.585Z,998.28
2019-03-02T11:56:26.780Z,998.25
2019-03-02T11:57:22.624Z,998.23
2019-03-02T11:58:22.643Z,998.21
2019-03-02T11:59:22.661Z,998.16
2019-03-02T12:00:22.681Z,998.16
2019-03-02T12:01:22.700Z,998.18
2019-03-02T12:02:23.758Z,998.13
2019-03-02T12:03:22.739Z,998.11
2019-03-02T12:04:22.759Z,998.1
2019-03-02T12:05:24.932Z,998.08
2019-03-02T12:06:22.797Z,998.09
2019-03-02T12:07:22.817Z,998.1
2019-03-02T12:08:23.477Z,998.02
2019-03-02T12:09:22.856Z,998.04
2019-03-02T12:10:22.876Z,998.06
2019-03-02T12:11:22.893Z,998.06
2019-03-02T12:12:22.915Z,998.02
2019-03-02T12:13:22.940Z,998.05
2019-03-02T12:14:22.953Z,998
2019-03-02T12:15:24.801Z,998.02
2019-03-02T12:16:26.293Z,997.99
2019-03-02T12:17:23.015Z,997.99
2019-03-02T12:18:23.031Z,997.97
2019-03-02T12:19:26.073Z,997.9
2019-03-02T12:20:23.070Z,997.89
2019-03-02T12:21:23.090Z,997.84
2019-03-02T12:22:23.108Z,997.9
2019-03-02T12:23:24.702Z,997.86
2019-03-02T12:24:23.227Z,997.84
2019-03-02T12:25:23.169Z,997.88
2019-03-02T12:26:23.188Z,997.86